Time;durP1;ratioP1;P1;durP2;ratioP2;P2;SDS_P1;SDS_P2;PMS_P1;PMS_P2;Temp;Humidity;BMP_temperature;BMP_pressure;BME280_temperature;BME280_humidity;BME280_pressure;Samples;Min_cycle;Max_cycle;Signal;HPM_P1;HPM_P2
2022/12/19 00:00:16;;;;;;;7.35;3.72;;;;;;;-8.56;65.20;100924.25;5034997;28;20340;-62
2022/12/19 00:02:41;;;;;;;7.72;4.00;;;;;;;-8.61;65.58;100915.53;5035897;28;20428;-62
2022/12/19 00:05:07;;;;;;;6.40;3.45;;;;;;;-8.61;65.44;100931.09;5035314;28;20092;-63
2022/12/19 00:07:32;;;;;;;7.05;3.45;;;;;;;-8.59;65.33;100919.00;5034930;28;20025;-64
2022/12/19 00:09:58;;;;;;;5.53;2.92;;;;;;;-8.66;65.38;100922.38;5034933;28;20269;-62
2022/12/19 00:12:23;;;;;;;6.68;3.50;;;;;;;-8.61;65.64;100925.91;5034327;28;20133;-63
2022/12/19 00:14:49;;;;;;;6.90;3.70;;;;;;;-8.59;65.45;100919.00;5034982;28;20359;-62
2022/12/19 00:17:14;;;;;;;6.55;3.47;;;;;;;-8.54;65.63;100926.88;5034997;28;20086;-63
2022/12/19 00:19:40;;;;;;;6.25;3.20;;;;;;;-8.51;65.69;100916.53;5034588;28;20086;-63
2022/12/19 00:22:05;;;;;;;6.28;3.65;;;;;;;-8.35;65.56;100915.00;5034851;28;20132;-63
2022/12/19 00:24:30;;;;;;;6.97;3.30;;;;;;;-8.23;65.25;100922.97;5035091;28;20120;-63
2022/12/19 00:26:56;;;;;;;6.60;3.33;;;;;;;-8.12;65.04;100911.84;5034352;28;20120;-62
2022/12/19 00:29:21;;;;;;;8.38;3.47;;;;;;;-8.02;64.92;100913.72;5034473;28;20228;-61
2022/12/19 00:31:47;;;;;;;6.68;3.85;;;;;;;-7.98;64.61;100910.31;5035205;28;20029;-63
2022/12/19 00:34:12;;;;;;;5.18;3.08;;;;;;;-7.87;65.06;100919.97;5035347;28;20360;-63
2022/12/19 00:36:38;;;;;;;5.93;3.55;;;;;;;-7.81;64.93;100914.84;5032904;28;20440;-61
2022/12/19 00:39:05;;;;;;;6.00;3.53;;;;;;;-7.73;64.82;100915.81;5034523;28;20157;-63
2022/12/19 00:41:33;;;;;;;6.70;3.30;;;;;;;-7.65;65.20;100913.31;5034860;28;20033;-62
2022/12/19 00:44:01;;;;;;;6.95;3.97;;;;;;;-7.55;65.11;100916.88;5034405;28;20364;-63
2022/12/19 00:46:27;;;;;;;6.13;3.15;;;;;;;-7.45;64.85;100917.88;5033796;28;20049;-62
2022/12/19 00:48:53;;;;;;;6.47;3.55;;;;;;;-7.42;65.05;100913.59;5033139;28;20053;-62
2022/12/19 00:51:24;;;;;;;7.80;4.07;;;;;;;-7.36;65.22;100916.25;5034539;28;20250;-61
2022/12/19 00:53:53;;;;;;;7.75;4.18;;;;;;;-7.53;65.37;100870.94;5034197;28;20042;-63
2022/12/19 00:56:21;;;;;;;7.50;3.65;;;;;;;-7.22;64.97;100913.78;5033780;28;20084;-63
2022/12/19 00:58:47;;;;;;;8.88;3.88;;;;;;;-7.19;65.20;100915.56;5033505;28;20034;-60
2022/12/19 01:01:19;;;;;;;12.88;4.55;;;;;;;-7.17;65.05;100906.03;5034347;28;20044;-62
2022/12/19 01:03:45;;;;;;;10.50;4.43;;;;;;;-7.37;64.98;100869.38;5034180;28;20041;-63
2022/12/19 01:06:10;;;;;;;9.48;5.07;;;;;;;-7.11;64.61;100907.81;5033756;28;20025;-62
2022/12/19 01:08:36;;;;;;;8.98;4.65;;;;;;;-7.33;64.87;100870.28;5032907;28;20155;-62
2022/12/19 01:11:03;;;;;;;9.68;5.15;;;;;;;-7.12;64.88;100911.25;5033271;28;20037;-61
2022/12/19 01:13:30;;;;;;;8.80;5.07;;;;;;;-7.27;65.07;100883.34;5033712;28;20044;-62
2022/12/19 01:16:00;;;;;;;9.65;5.20;;;;;;;-7.12;64.79;100906.03;5033426;28;20045;-63
2022/12/19 01:18:25;;;;;;;10.82;6.00;;;;;;;-7.09;64.94;100911.31;5033721;28;20356;-62
2022/12/19 01:20:51;;;;;;;11.98;6.60;;;;;;;-7.33;65.11;100872.88;5033504;28;20033;-62
2022/12/19 01:23:16;;;;;;;13.00;6.57;;;;;;;-7.10;65.22;100914.78;5033081;28;20029;-62
2022/12/19 01:25:47;;;;;;;14.82;6.35;;;;;;;-7.38;65.01;100868.53;5032811;28;20025;-63
2022/12/19 01:28:14;;;;;;;10.73;5.93;;;;;;;-7.18;65.77;100900.78;5032527;28;20364;-63
2022/12/19 01:30:40;;;;;;;12.13;6.07;;;;;;;-7.15;65.56;100906.91;5033227;28;20824;-62
2022/12/19 01:33:07;;;;;;;10.63;5.57;;;;;;;-7.12;65.70;100922.56;5033729;28;20440;-63
2022/12/19 01:35:33;;;;;;;13.50;6.07;;;;;;;-7.37;65.75;100874.59;5031923;28;20029;-61
2022/12/19 01:37:58;;;;;;;11.18;5.72;;;;;;;-7.35;65.81;100865.94;5032051;28;20025;-62
2022/12/19 01:40:24;;;;;;;13.80;6.13;;;;;;;-7.15;66.00;100906.03;5033805;28;20061;-62
2022/12/19 01:42:49;;;;;;;11.82;5.88;;;;;;;-7.15;65.85;100903.41;5032713;28;20089;-62
2022/12/19 01:45:15;;;;;;;12.15;6.03;;;;;;;-7.14;66.08;100899.97;5032788;28;20419;-62
2022/12/19 01:47:52;;;;;;;11.43;5.97;;;;;;;-7.08;66.05;100906.09;5032449;28;20041;-62
2022/12/19 01:50:44;;;;;;;10.77;5.60;;;;;;;-7.01;65.97;100904.44;5032449;28;20098;-66
2022/12/19 01:53:11;;;;;;;11.02;5.22;;;;;;;-7.04;65.86;100909.63;5029015;28;20056;-62
2022/12/19 01:55:39;;;;;;;11.20;6.07;;;;;;;-7.07;65.89;100905.25;5032753;28;20429;-63
2022/12/19 01:58:05;;;;;;;11.73;6.15;;;;;;;-7.17;66.00;100881.72;5033572;28;20068;-65
2022/12/19 02:00:30;;;;;;;10.18;5.60;;;;;;;-7.05;66.18;100905.28;5031810;28;20079;-63
2022/12/19 02:03:02;;;;;;;9.25;5.18;;;;;;;-7.06;65.70;100907.00;5032906;28;20084;-64
2022/12/19 02:05:28;;;;;;;11.25;5.63;;;;;;;-7.04;66.52;100898.31;5031969;28;20033;-63
2022/12/19 02:07:54;;;;;;;10.70;5.55;;;;;;;-7.03;66.50;100897.47;5032319;28;20367;-62
2022/12/19 02:10:20;;;;;;;12.02;5.55;;;;;;;-7.00;66.61;100900.97;5032308;28;20036;-63
2022/12/19 02:12:46;;;;;;;10.02;5.32;;;;;;;-7.03;66.35;100876.63;5032572;28;20471;-62
2022/12/19 02:15:14;;;;;;;10.82;5.78;;;;;;;-7.48;66.33;100788.63;5031418;28;20167;-64
2022/12/19 02:17:58;;;;;;;10.82;6.22;;;;;;;-6.86;66.67;100876.78;5032905;28;20064;-62
2022/12/19 02:21:03;;;;;;;13.02;6.40;;;;;;;-6.81;66.66;100869.88;5031710;28;20120;-63
2022/12/19 02:23:56;;;;;;;11.43;5.60;;;;;;;-6.74;66.61;100878.63;5031173;28;20057;-62
2022/12/19 02:26:25;;;;;;;11.07;5.88;;;;;;;-6.74;66.30;100881.22;5032080;28;20456;-63
2022/12/19 02:28:58;;;;;;;11.38;5.82;;;;;;;-6.68;66.52;100876.91;5033262;28;20103;-62
2022/12/19 02:31:45;;;;;;;10.90;5.57;;;;;;;-6.58;66.93;100872.63;5032713;28;20044;-62
2022/12/19 02:34:21;;;;;;;7.57;4.32;;;;;;;-6.51;66.55;100871.84;5034122;28;20033;-62
2022/12/19 02:36:56;;;;;;;9.05;5.05;;;;;;;-6.43;66.58;100868.41;5033733;28;20128;-63
2022/12/19 02:39:30;;;;;;;10.20;5.45;;;;;;;-6.41;66.66;100858.88;5033325;28;20040;-61
2022/12/19 02:41:57;;;;;;;8.00;4.53;;;;;;;-6.36;66.27;100859.75;5031718;28;20100;-61
2022/12/19 02:44:36;;;;;;;9.02;4.88;;;;;;;-6.29;66.62;100852.84;5033090;28;20034;-61
2022/12/19 02:47:04;;;;;;;7.85;4.15;;;;;;;-6.23;65.89;100848.53;5032382;28;20068;-62
2022/12/19 02:49:32;;;;;;;8.18;4.30;;;;;;;-6.35;66.56;100820.69;5031635;28;20053;-63
2022/12/19 02:52:10;;;;;;;8.30;4.00;;;;;;;-6.30;66.06;100802.44;5032049;28;20060;-62
2022/12/19 02:54:37;;;;;;;6.50;3.80;;;;;;;-6.10;65.86;100838.16;5031908;28;20067;-62
2022/12/19 02:57:09;;;;;;;7.68;4.22;;;;;;;-6.02;66.27;100836.47;5032307;28;20380;-63
2022/12/19 02:59:41;;;;;;;8.48;4.40;;;;;;;-5.92;65.96;100833.00;5031173;28;20045;-62
2022/12/19 03:02:44;;;;;;;8.40;4.18;;;;;;;-5.86;66.06;100832.16;5032080;28;20090;-62
2022/12/19 03:05:27;;;;;;;8.35;4.57;;;;;;;-5.76;65.76;100822.63;5031612;28;20367;-62
2022/12/19 03:08:17;;;;;;;6.82;3.97;;;;;;;-5.75;65.46;100819.13;5032695;28;20037;-63
2022/12/19 03:10:56;;;;;;;9.55;4.22;;;;;;;-5.74;65.78;100822.59;5032018;28;20044;-63
2022/12/19 03:13:28;;;;;;;8.43;4.50;;;;;;;-5.79;65.73;100814.75;5032359;28;20107;-62
2022/12/19 03:15:54;;;;;;;8.27;4.30;;;;;;;-5.80;65.44;100821.72;5031738;28;20526;-63
2022/12/19 03:18:19;;;;;;;8.65;4.47;;;;;;;-5.76;65.46;100812.19;5031895;28;20072;-62
2022/12/19 03:21:01;;;;;;;8.27;4.82;;;;;;;-5.66;65.45;100813.06;5032878;28;20044;-63
2022/12/19 03:23:27;;;;;;;10.13;4.55;;;;;;;-5.66;65.65;100808.72;5034790;28;20048;-63
2022/12/19 03:26:00;;;;;;;9.40;4.65;;;;;;;-5.63;65.50;100818.28;5035356;28;20033;-62
2022/12/19 03:28:35;;;;;;;12.05;4.50;;;;;;;-5.58;65.61;100810.47;5036916;28;20101;-63
2022/12/19 03:31:03;;;;;;;8.68;4.43;;;;;;;-5.57;65.39;100817.41;5036068;28;20042;-64
2022/12/19 03:33:31;;;;;;;10.75;4.53;;;;;;;-5.52;65.39;100826.16;5035803;28;20353;-63
2022/12/19 03:36:00;;;;;;;7.78;4.22;;;;;;;-5.52;65.94;100813.94;5036332;28;20040;-61
2022/12/19 03:38:27;;;;;;;6.40;4.22;;;;;;;-5.56;65.67;100799.16;5036124;28;20033;-62
2022/12/19 03:40:54;;;;;;;8.73;4.53;;;;;;;-5.49;65.97;100805.28;5035688;28;20080;-62
2022/12/19 03:43:22;;;;;;;9.52;4.25;;;;;;;-5.64;65.86;100770.44;5036132;28;20463;-62
2022/12/19 03:46:01;;;;;;;8.05;4.43;;;;;;;-5.43;66.04;100799.16;5036244;28;20029;-62
2022/12/19 03:48:34;;;;;;;11.95;4.80;;;;;;;-5.43;66.11;100800.06;5035761;28;20029;-62
2022/12/19 03:51:12;;;;;;;9.55;4.80;;;;;;;-5.36;66.38;100793.94;5035186;28;20375;-64
2022/12/19 03:53:47;;;;;;;9.07;4.50;;;;;;;-5.31;65.86;100787.84;5035686;28;20084;-64
2022/12/19 03:56:35;;;;;;;9.02;4.32;;;;;;;-5.32;66.19;100760.91;5034485;28;20044;-63
2022/12/19 03:59:08;;;;;;;10.18;5.22;;;;;;;-5.25;65.97;100769.63;5035007;28;20084;-64
2022/12/19 04:01:35;;;;;;;12.82;5.72;;;;;;;-5.21;66.36;100769.59;5035657;28;20547;-61
2022/12/19 04:04:03;;;;;;;10.30;5.35;;;;;;;-5.20;65.78;100767.88;5034454;28;20048;-63
2022/12/19 04:06:32;;;;;;;9.88;5.32;;;;;;;-5.15;66.25;100779.16;5035428;28;20039;-63
2022/12/19 04:08:58;;;;;;;10.65;4.93;;;;;;;-5.18;66.04;100773.94;5034286;28;20057;-63
2022/12/19 04:11:26;;;;;;;15.25;6.65;;;;;;;-5.16;65.91;100777.44;5035528;28;20071;-62
2022/12/19 04:14:00;;;;;;;10.40;5.50;;;;;;;-5.23;65.71;100779.16;5035618;28;20055;-62
2022/12/19 04:17:00;;;;;;;11.30;6.10;;;;;;;-5.24;65.98;100774.81;5035143;28;20040;-62
2022/12/19 04:19:31;;;;;;;11.77;5.93;;;;;;;-5.42;66.07;100760.03;5027360;28;20041;-61
2022/12/19 04:22:04;;;;;;;12.60;5.95;;;;;;;-5.87;66.29;100706.94;5034236;28;20471;-63
2022/12/19 04:24:33;;;;;;;11.82;5.75;;;;;;;-5.73;66.71;100760.00;5035431;28;20372;-63
2022/12/19 04:27:01;;;;;;;13.40;5.55;;;;;;;-6.04;66.73;100713.03;5034768;28;20029;-63
2022/12/19 04:29:30;;;;;;;13.10;6.25;;;;;;;-6.04;66.72;100739.09;5033492;28;20440;-62
2022/12/19 04:31:56;;;;;;;11.98;6.22;;;;;;;-5.98;67.12;100753.84;5033406;28;20456;-63
2022/12/19 04:34:21;;;;;;;12.70;5.88;;;;;;;-6.01;67.63;100749.56;5034931;28;20107;-62
2022/12/19 04:36:47;;;;;;;11.38;5.90;;;;;;;-5.96;67.55;100765.16;5034005;28;20448;-62
2022/12/19 04:39:13;;;;;;;12.63;5.47;;;;;;;-5.85;67.45;100767.78;5031275;28;20037;-62
2022/12/19 04:41:39;;;;;;;12.85;5.80;;;;;;;-5.76;67.59;100786.09;5034069;28;20032;-63
2022/12/19 04:44:04;;;;;;;12.85;5.63;;;;;;;-5.67;67.33;100780.00;5033747;28;20032;-63
2022/12/19 04:46:29;;;;;;;12.30;5.55;;;;;;;-5.58;67.13;100779.16;5032513;28;20107;-59
2022/12/19 04:48:55;;;;;;;13.10;5.28;;;;;;;-5.53;66.47;100780.03;5032263;28;20053;-55
2022/12/19 04:51:20;;;;;;;9.43;5.28;;;;;;;-5.39;66.81;100796.56;5033715;28;20057;-63
2022/12/19 04:53:46;;;;;;;13.73;5.90;;;;;;;-5.35;66.78;100785.25;5005123;28;20041;-55
2022/12/19 04:56:11;;;;;;;10.20;5.30;;;;;;;-5.26;66.42;100773.09;5024464;28;20095;-52
2022/12/19 04:58:37;;;;;;;13.68;5.55;;;;;;;-5.23;66.45;100780.91;5014274;28;20034;-55
2022/12/19 05:01:07;;;;;;;11.85;5.10;;;;;;;-5.14;66.83;100774.81;5013599;28;20037;-58
2022/12/19 05:03:34;;;;;;;11.93;5.40;;;;;;;-5.12;66.92;100773.09;5014166;28;20084;-58
2022/12/19 05:06:11;;;;;;;12.35;5.15;;;;;;;-5.06;66.63;100783.50;5014229;28;20048;-56
2022/12/19 05:08:38;;;;;;;10.65;5.22;;;;;;;-5.05;66.20;100756.53;5017860;28;20033;-59
2022/12/19 05:11:05;;;;;;;10.35;5.13;;;;;;;-4.97;66.73;100774.81;5033885;28;20036;-57
2022/12/19 05:13:30;;;;;;;10.40;5.30;;;;;;;-4.94;66.56;100769.56;5033070;28;20087;-56
2022/12/19 05:16:04;;;;;;;11.02;5.65;;;;;;;-4.94;66.53;100752.19;5033090;28;20033;-62
2022/12/19 05:18:30;;;;;;;10.15;5.15;;;;;;;-4.87;66.56;100762.59;5033452;28;20038;-54
2022/12/19 05:20:56;;;;;;;10.95;4.95;;;;;;;-4.83;65.91;100783.47;5033649;28;20484;-58
2022/12/19 05:23:22;;;;;;;10.88;4.90;;;;;;;-4.79;66.11;100780.00;5034012;28;20029;-60
2022/12/19 05:25:47;;;;;;;9.48;5.20;;;;;;;-4.84;66.15;100762.59;5033530;28;20033;-56
2022/12/19 05:28:14;;;;;;;11.27;5.38;;;;;;;-4.78;65.90;100757.34;5033354;28;20037;-56
2022/12/19 05:30:39;;;;;;;10.00;5.30;;;;;;;-4.72;66.17;100772.16;5024849;28;20096;-55
2022/12/19 05:33:05;;;;;;;12.55;5.40;;;;;;;-4.71;66.13;100771.28;5021482;28;20467;-57
2022/12/19 05:35:31;;;;;;;9.30;4.82;;;;;;;-4.70;66.33;100760.84;5032986;28;20029;-57
2022/12/19 05:37:57;;;;;;;9.18;4.78;;;;;;;-4.72;66.50;100756.47;5019073;28;20045;-59
2022/12/19 05:40:22;;;;;;;10.35;5.20;;;;;;;-4.82;65.88;100743.44;5014196;28;20711;-59
2022/12/19 05:42:48;;;;;;;11.85;5.82;;;;;;;-4.73;66.39;100750.38;5013573;28;20026;-56
2022/12/19 05:45:13;;;;;;;9.05;4.93;;;;;;;-4.66;66.47;100770.41;5062905;28;20041;-58
2022/12/19 05:47:38;;;;;;;9.98;5.10;;;;;;;-4.67;66.44;100767.78;5033515;28;20059;-59
2022/12/19 05:50:04;;;;;;;9.07;5.13;;;;;;;-4.58;65.89;100773.00;5033702;28;20053;-61
2022/12/19 05:52:30;;;;;;;10.48;4.97;;;;;;;-4.59;66.28;100773.84;5032692;28;20452;-58
2022/12/19 05:54:56;;;;;;;11.55;5.32;;;;;;;-4.57;65.86;100768.63;5032590;28;20113;-58
2022/12/19 05:57:21;;;;;;;11.57;5.30;;;;;;;-4.61;66.13;100746.84;5031751;28;20029;-56
2022/12/19 05:59:47;;;;;;;10.70;5.40;;;;;;;-4.56;66.32;100742.50;5030006;28;20754;-57
2022/12/19 06:02:12;;;;;;;11.63;5.85;;;;;;;-4.48;66.07;100756.41;5022930;28;20357;-53
2022/12/19 06:04:37;;;;;;;10.35;5.45;;;;;;;-4.44;66.41;100745.94;5032363;28;20075;-62
2022/12/19 06:07:04;;;;;;;13.30;5.60;;;;;;;-4.42;65.72;100754.63;5030202;28;20029;-58
2022/12/19 06:09:29;;;;;;;10.23;5.15;;;;;;;-4.38;66.02;100754.63;5028443;28;20035;-61
2022/12/19 06:11:55;;;;;;;14.43;5.13;;;;;;;-4.52;65.68;100723.31;5031525;28;20037;-59
2022/12/19 06:14:20;;;;;;;10.90;4.85;;;;;;;-4.29;65.68;100755.44;5031240;28;20430;-60
2022/12/19 06:16:46;;;;;;;10.35;5.38;;;;;;;-4.29;65.84;100765.91;5027566;28;20120;-61
2022/12/19 06:19:12;;;;;;;14.27;5.75;;;;;;;-4.25;65.89;100768.50;5026576;28;20588;-61
2022/12/19 06:21:37;;;;;;;13.98;6.00;;;;;;;-4.25;65.66;100768.50;5031951;28;20095;-61
2022/12/19 06:24:03;;;;;;;13.57;5.47;;;;;;;-4.16;65.12;100779.78;5031466;28;20116;-67
2022/12/19 06:26:29;;;;;;;11.30;5.63;;;;;;;-4.19;65.82;100778.94;5032183;28;20431;-58
2022/12/19 06:28:55;;;;;;;13.38;5.68;;;;;;;-4.15;64.93;100784.16;5027459;28;20021;-59
2022/12/19 06:31:23;;;;;;;9.80;5.35;;;;;;;-4.23;65.91;100792.91;5022877;28;20039;-58
2022/12/19 06:33:49;;;;;;;11.32;5.40;;;;;;;-4.25;64.96;100771.13;5026127;28;20036;-63
2022/12/19 06:36:23;;;;;;;10.40;5.75;;;;;;;-4.22;65.25;100785.91;5029888;28;20044;-64
2022/12/19 06:38:49;;;;;;;11.00;5.30;;;;;;;-4.20;65.44;100787.66;5036387;28;20130;-63
2022/12/19 06:44:01;;;;;;;12.43;5.60;;;;;;;-4.15;65.55;100776.31;5031531;28;20436;-62
2022/12/19 06:46:27;;;;;;;11.27;5.95;;;;;;;-4.16;65.25;100777.19;5030997;28;20485;-63
2022/12/19 06:48:53;;;;;;;13.10;4.97;;;;;;;-4.17;65.37;100776.31;5030976;28;20128;-62
2022/12/19 06:51:19;;;;;;;12.52;5.50;;;;;;;-4.07;64.83;100779.78;5031978;28;20349;-63
2022/12/19 06:53:44;;;;;;;10.73;4.80;;;;;;;-4.09;64.94;100763.22;5031084;28;20044;-62
2022/12/19 06:56:12;;;;;;;11.23;4.85;;;;;;;-3.99;65.26;100774.47;5031265;28;20041;-64
2022/12/19 06:58:38;;;;;;;9.80;4.88;;;;;;;-4.00;65.22;100765.78;5031394;28;20040;-61
2022/12/19 07:01:03;;;;;;;11.75;5.18;;;;;;;-3.91;64.71;100768.34;5031529;28;20029;-62
2022/12/19 07:03:35;;;;;;;11.05;5.18;;;;;;;-3.84;64.96;100769.16;5031421;28;20087;-62
2022/12/19 07:06:01;;;;;;;12.93;5.57;;;;;;;-3.85;64.91;100750.88;5031367;28;20037;-62
2022/12/19 07:08:26;;;;;;;10.90;5.10;;;;;;;-3.83;64.82;100763.06;5030727;28;20088;-63
2022/12/19 07:10:52;;;;;;;12.75;5.47;;;;;;;-3.80;64.67;100746.47;5031275;28;20391;-63
2022/12/19 07:13:18;;;;;;;9.90;5.00;;;;;;;-3.74;64.65;100754.28;5030244;28;20455;-62
2022/12/19 07:15:43;;;;;;;10.95;5.15;;;;;;;-3.65;64.28;100748.13;5030771;28;20029;-63
2022/12/19 07:18:09;;;;;;;10.95;5.50;;;;;;;-3.64;64.53;100752.47;5031995;28;20029;-64
2022/12/19 07:20:37;;;;;;;11.13;4.97;;;;;;;-3.57;63.96;100762.00;5031554;28;20408;-62
2022/12/19 07:23:03;;;;;;;11.10;5.35;;;;;;;-3.72;64.29;100728.97;5030961;28;20038;-61
2022/12/19 07:25:30;;;;;;;12.88;5.60;;;;;;;-3.87;64.88;100715.97;5031248;28;20029;-61
2022/12/19 07:27:56;;;;;;;13.45;5.28;;;;;;;-3.58;65.44;100769.91;5030644;28;20033;-62
2022/12/19 07:30:21;;;;;;;14.23;6.47;;;;;;;-3.53;64.77;100762.88;5031131;28;20179;-62
2022/12/19 07:32:47;;;;;;;11.57;5.47;;;;;;;-3.45;64.70;100766.28;5030538;28;20368;-62
2022/12/19 07:35:13;;;;;;;16.65;5.57;;;;;;;-3.47;64.85;100778.53;5031775;28;20373;-62
2022/12/19 07:37:38;;;;;;;13.63;5.80;;;;;;;-3.43;64.59;100782.84;5031594;28;20048;-62
2022/12/19 07:40:04;;;;;;;10.85;5.32;;;;;;;-3.56;64.78;100760.28;5030943;28;20026;-62
2022/12/19 07:42:30;;;;;;;10.10;4.70;;;;;;;-3.57;64.53;100751.53;5029503;28;20048;-62
2022/12/19 07:44:55;;;;;;;11.85;6.18;;;;;;;-3.37;64.43;100777.59;5029773;28;20440;-62
2022/12/19 07:47:21;;;;;;;10.32;5.25;;;;;;;-3.30;64.59;100788.00;5030816;28;20037;-62
2022/12/19 07:49:46;;;;;;;14.07;5.70;;;;;;;-3.27;64.75;100785.38;5029799;28;20471;-62
2022/12/19 07:52:12;;;;;;;11.90;5.90;;;;;;;-3.31;64.70;100784.50;5030784;28;20507;-61
2022/12/19 07:54:37;;;;;;;9.70;5.65;;;;;;;-3.25;64.30;100776.63;5028498;28;20045;-64
2022/12/19 07:57:03;;;;;;;10.50;5.18;;;;;;;-3.18;64.04;100769.56;5032539;28;20169;-61
2022/12/19 07:59:28;;;;;;;11.18;5.53;;;;;;;-3.15;64.29;100780.00;5026953;28;20510;-61
2022/12/19 08:01:53;;;;;;;10.63;5.47;;;;;;;-3.39;64.04;100734.81;5029817;28;20025;-58
2022/12/19 08:04:19;;;;;;;13.15;5.47;;;;;;;-3.36;64.48;100742.69;5031503;28;20029;-58
2022/12/19 08:06:45;;;;;;;13.45;6.03;;;;;;;-3.17;64.99;100773.91;5030943;28;20037;-62
2022/12/19 08:09:11;;;;;;;11.07;5.22;;;;;;;-3.12;64.96;100766.91;5034244;28;20037;-63
2022/12/19 08:11:37;;;;;;;12.18;5.70;;;;;;;-3.14;64.46;100771.28;5034312;28;20028;-63
2022/12/19 08:14:03;;;;;;;11.40;5.72;;;;;;;-3.19;64.78;100759.97;5034486;28;20029;-62
2022/12/19 08:16:28;;;;;;;15.40;5.78;;;;;;;-3.09;64.20;100769.50;5032009;28;20032;-62
2022/12/19 08:18:54;;;;;;;10.13;5.38;;;;;;;-3.11;64.54;100752.94;5032721;28;20036;-61
2022/12/19 08:21:20;;;;;;;10.73;5.57;;;;;;;-3.03;64.59;100769.44;5030444;28;20127;-60
2022/12/19 08:23:45;;;;;;;10.70;5.43;;;;;;;-2.93;64.27;100769.34;5032168;28;20029;-59
2022/12/19 08:26:15;;;;;;;12.50;5.93;;;;;;;-2.88;64.48;100772.81;5028181;28;20171;-59
2022/12/19 08:28:42;;;;;;;12.18;6.63;;;;;;;-2.93;64.39;100751.88;5034007;28;20021;-52
2022/12/19 08:31:13;;;;;;;12.40;5.72;;;;;;;-2.78;64.11;100758.72;5033304;28;20107;-52
2022/12/19 08:33:39;;;;;;;14.23;6.78;;;;;;;-2.79;64.46;100756.97;5034526;28;20025;-62
2022/12/19 08:36:09;;;;;;;17.88;6.97;;;;;;;-2.74;64.53;100760.41;5033348;28;20436;-61
2022/12/19 08:38:35;;;;;;;13.77;6.60;;;;;;;-2.67;64.66;100762.97;5032751;28;20037;-61
2022/12/19 08:41:01;;;;;;;12.73;6.55;;;;;;;-2.69;64.11;100741.13;5031138;28;20677;-62
2022/12/19 08:43:27;;;;;;;14.15;6.80;;;;;;;-2.70;63.71;100728.91;5033885;28;20112;-60
2022/12/19 08:45:53;;;;;;;12.30;6.47;;;;;;;-2.58;64.21;100749.78;5034207;28;20040;-60
2022/12/19 08:48:18;;;;;;;14.20;6.75;;;;;;;-2.59;64.26;100745.41;5032972;28;20118;-59
2022/12/19 08:50:56;;;;;;;13.57;6.50;;;;;;;-2.49;64.39;100746.19;5030981;28;20176;-61
2022/12/19 08:53:22;;;;;;;12.57;6.43;;;;;;;-2.47;64.06;100747.88;5032586;28;20069;-61
2022/12/19 08:55:56;;;;;;;12.15;5.90;;;;;;;-2.40;63.93;100748.69;5032880;28;20033;-61
2022/12/19 08:58:23;;;;;;;12.13;5.82;;;;;;;-2.42;63.85;100741.72;5033067;28;20736;-60
2022/12/19 09:00:49;;;;;;;11.65;5.70;;;;;;;-2.39;64.07;100749.56;5032962;28;20025;-57
2022/12/19 09:03:14;;;;;;;11.70;5.80;;;;;;;-2.40;63.62;100755.69;5018156;28;20372;-58
2022/12/19 09:05:39;;;;;;;13.38;5.97;;;;;;;-2.42;63.78;100746.94;5046482;28;20069;-59
2022/12/19 09:08:05;;;;;;;11.88;5.82;;;;;;;-2.42;64.01;100742.59;5021898;28;20078;-59
2022/12/19 09:10:30;;;;;;;10.35;5.68;;;;;;;-2.43;63.96;100739.97;5022839;28;20196;-63
2022/12/19 09:12:57;;;;;;;12.57;5.70;;;;;;;-2.43;64.11;100748.72;5033118;28;20068;-63
2022/12/19 09:15:23;;;;;;;10.88;5.97;;;;;;;-2.41;64.57;100746.94;5012750;28;20029;-62
2022/12/19 09:17:48;;;;;;;9.70;5.57;;;;;;;-2.38;64.69;100746.06;5013029;28;20433;-64
2022/12/19 09:20:14;;;;;;;10.77;5.38;;;;;;;-2.34;64.06;100743.34;5013870;28;20156;-64
2022/12/19 09:22:39;;;;;;;12.13;5.38;;;;;;;-2.55;63.62;100713.03;5014070;28;20416;-64
2022/12/19 09:25:06;;;;;;;11.20;5.50;;;;;;;-2.35;63.87;100741.63;5012098;28;20117;-64
2022/12/19 09:27:31;;;;;;;11.38;6.25;;;;;;;-2.29;64.05;100742.41;5013624;28;20199;-63
2022/12/19 09:29:56;;;;;;;10.80;5.88;;;;;;;-2.27;64.07;100733.66;5013812;28;20484;-63
2022/12/19 09:32:22;;;;;;;11.70;5.80;;;;;;;-2.23;64.38;100740.59;5052589;28;20140;-63
2022/12/19 09:34:47;;;;;;;11.40;5.97;;;;;;;-2.45;63.77;100698.91;5032897;28;20036;-63
2022/12/19 09:37:13;;;;;;;14.63;6.63;;;;;;;-2.30;64.18;100731.06;5032341;28;20064;-66
2022/12/19 09:39:38;;;;;;;13.05;6.97;;;;;;;-2.45;64.62;100712.00;5033886;28;20028;-63
2022/12/19 09:42:34;;;;;;;15.68;6.82;;;;;;;-2.17;64.01;100743.16;5033169;28;20459;-64
2022/12/19 09:45:02;;;;;;;11.50;5.72;;;;;;;-2.21;64.36;100744.06;5031500;28;20037;-63
2022/12/19 09:47:31;;;;;;;12.07;6.53;;;;;;;-2.32;63.83;100727.59;5032640;28;20120;-63
2022/12/19 09:49:58;;;;;;;14.60;6.28;;;;;;;-2.32;64.03;100731.09;5032739;28;20053;-63
2022/12/19 09:52:33;;;;;;;11.25;6.03;;;;;;;-2.17;63.82;100737.03;5033330;28;20116;-63
2022/12/19 09:55:18;;;;;;;10.05;4.65;;;;;;;-2.11;64.57;100743.97;5031374;28;20113;-62
2022/12/19 09:57:50;;;;;;;11.15;5.93;;;;;;;-2.09;64.15;100745.66;5031864;28;20044;-63
2022/12/19 10:00:21;;;;;;;10.70;5.85;;;;;;;-2.21;64.49;100746.69;5033209;28;20044;-62
2022/12/19 10:02:58;;;;;;;14.43;6.43;;;;;;;-2.26;64.53;100745.88;5021713;28;20021;-62
2022/12/19 10:05:37;;;;;;;12.73;6.28;;;;;;;-2.36;64.27;100711.03;5012838;28;20180;-63
2022/12/19 10:08:20;;;;;;;11.88;6.15;;;;;;;-2.18;64.60;100737.91;5052526;28;20026;-64
2022/12/19 10:11:04;;;;;;;11.55;6.28;;;;;;;-2.14;64.82;100738.75;5028796;28;20037;-61
2022/12/19 10:13:35;;;;;;;13.43;6.70;;;;;;;-2.15;64.79;100740.50;5030335;28;20505;-63
2022/12/19 10:16:20;;;;;;;11.50;6.65;;;;;;;-2.11;65.04;100743.97;5030957;28;20065;-63
2022/12/19 10:19:03;;;;;;;13.57;7.10;;;;;;;-2.14;65.36;100742.22;5029588;28;20037;-62
2022/12/19 10:21:47;;;;;;;12.88;6.65;;;;;;;-2.17;65.15;100734.41;5032163;28;20132;-62
2022/12/19 10:24:41;;;;;;;13.27;7.07;;;;;;;-2.11;65.05;100747.44;5032008;28;20036;-62
2022/12/19 10:27:45;;;;;;;13.23;7.10;;;;;;;-2.03;64.91;100736.84;5022597;28;20103;-62
2022/12/19 10:30:14;;;;;;;13.48;6.35;;;;;;;-2.06;64.84;100736.88;5024990;28;20045;-67
2022/12/19 10:33:11;;;;;;;15.95;7.18;;;;;;;-2.00;65.39;100735.94;5022289;28;20030;-64
2022/12/19 10:35:42;;;;;;;14.30;7.22;;;;;;;-2.01;64.73;100735.06;5012197;28;20400;-63
2022/12/19 10:38:15;;;;;;;12.38;6.57;;;;;;;-1.99;65.36;100733.28;5018543;28;20067;-64
2022/12/19 10:40:58;;;;;;;12.57;6.70;;;;;;;-1.88;64.74;100739.25;5032115;28;20065;-62
2022/12/19 10:43:39;;;;;;;15.50;7.15;;;;;;;-1.91;65.54;100734.06;5029876;28;20025;-63
2022/12/19 10:46:21;;;;;;;13.00;6.95;;;;;;;-1.85;65.62;100735.72;5011174;28;20068;-64
2022/12/19 10:48:50;;;;;;;15.23;7.30;;;;;;;-1.86;65.16;100735.75;5014015;28;20046;-62
2022/12/19 10:51:23;;;;;;;15.48;7.20;;;;;;;-1.87;65.33;100748.00;5020859;28;20041;-63
2022/12/19 10:53:56;;;;;;;13.73;6.10;;;;;;;-1.94;65.41;100738.47;5029162;28;20402;-62
2022/12/19 10:56:25;;;;;;;13.35;7.20;;;;;;;-2.15;64.96;100697.66;5030513;28;20072;-62
2022/12/19 10:58:56;;;;;;;12.55;6.43;;;;;;;-1.94;65.50;100738.47;5024100;28;20041;-61
2022/12/19 11:01:26;;;;;;;13.40;7.38;;;;;;;-2.02;65.84;100736.84;5015284;28;20042;-61
2022/12/19 11:04:13;;;;;;;11.98;6.68;;;;;;;-1.94;65.54;100741.94;5030606;28;20041;-63
2022/12/19 11:06:46;;;;;;;11.90;6.68;;;;;;;-1.95;65.81;100740.22;5031675;28;20033;-62
2022/12/19 11:09:17;;;;;;;12.45;7.15;;;;;;;-1.98;65.64;100740.25;5032313;28;20026;-59
2022/12/19 11:11:46;;;;;;;13.07;6.93;;;;;;;-2.02;66.11;100744.72;5031980;28;20328;-61
2022/12/19 11:14:24;;;;;;;14.70;7.07;;;;;;;-1.98;65.72;100740.25;5032129;28;20029;-60
2022/12/19 11:16:50;;;;;;;12.15;6.20;;;;;;;-1.99;65.68;100742.94;5026671;28;20362;-61
2022/12/19 11:19:26;;;;;;;15.93;7.10;;;;;;;-1.79;65.72;100750.50;5011886;28;20457;-63
2022/12/19 11:21:52;;;;;;;15.50;6.90;;;;;;;-1.96;65.31;100753.38;5029059;28;20083;-62
2022/12/19 11:24:42;;;;;;;16.27;7.25;;;;;;;-1.97;65.23;100756.91;5031309;28;20025;-62
2022/12/19 11:27:42;;;;;;;15.65;6.88;;;;;;;-2.03;66.11;100755.22;5031786;28;20030;-60
2022/12/19 11:30:19;;;;;;;14.50;7.43;;;;;;;-2.11;66.46;100743.97;5027976;28;20081;-59
2022/12/19 11:32:47;;;;;;;15.82;7.45;;;;;;;-2.13;66.90;100756.22;5029341;28;20342;-61